sensor_id;sensor_type;location;lat;lon;timestamp;P1;durP1;ratioP1;P2;durP2;ratioP2
32319;SDS011;19080;51.750;5.888;2023-02-03T00:01:42;11.43;;;2.85;;
32319;SDS011;19080;51.750;5.888;2023-02-03T00:04:09;13.25;;;3.67;;
32319;SDS011;19080;51.750;5.888;2023-02-03T00:06:35;15.45;;;3.35;;
32319;SDS011;19080;51.750;5.888;2023-02-03T00:09:02;17.00;;;3.40;;
32319;SDS011;19080;51.750;5.888;2023-02-03T00:11:30;27.23;;;3.85;;
32319;SDS011;19080;51.750;5.888;2023-02-03T00:13:57;10.68;;;3.00;;
32319;SDS011;19080;51.750;5.888;2023-02-03T00:16:24;12.25;;;2.58;;
32319;SDS011;19080;51.750;5.888;2023-02-03T00:18:51;20.02;;;3.25;;
32319;SDS011;19080;51.750;5.888;2023-02-03T00:21:17;11.95;;;3.05;;
32319;SDS011;19080;51.750;5.888;2023-02-03T00:23:44;14.05;;;3.22;;
32319;SDS011;19080;51.750;5.888;2023-02-03T00:26:11;9.63;;;3.50;;
32319;SDS011;19080;51.750;5.888;2023-02-03T00:28:41;13.02;;;3.55;;
32319;SDS011;19080;51.750;5.888;2023-02-03T00:31:15;14.43;;;3.60;;
32319;SDS011;19080;51.750;5.888;2023-02-03T00:33:44;15.23;;;3.38;;
32319;SDS011;19080;51.750;5.888;2023-02-03T00:36:11;11.48;;;3.00;;
32319;SDS011;19080;51.750;5.888;2023-02-03T00:38:39;17.10;;;3.22;;
32319;SDS011;19080;51.750;5.888;2023-02-03T00:41:05;15.25;;;3.55;;
32319;SDS011;19080;51.750;5.888;2023-02-03T00:43:32;21.48;;;3.60;;
32319;SDS011;19080;51.750;5.888;2023-02-03T00:45:59;15.07;;;3.25;;
32319;SDS011;19080;51.750;5.888;2023-02-03T00:48:26;14.93;;;3.38;;
32319;SDS011;19080;51.750;5.888;2023-02-03T00:50:52;9.68;;;2.83;;
32319;SDS011;19080;51.750;5.888;2023-02-03T00:53:19;11.30;;;3.20;;
32319;SDS011;19080;51.750;5.888;2023-02-03T00:55:45;17.73;;;3.47;;
32319;SDS011;19080;51.750;5.888;2023-02-03T00:58:12;15.15;;;3.38;;
32319;SDS011;19080;51.750;5.888;2023-02-03T01:00:39;14.18;;;3.10;;
32319;SDS011;19080;51.750;5.888;2023-02-03T01:03:05;17.95;;;3.78;;
32319;SDS011;19080;51.750;5.888;2023-02-03T01:05:32;14.80;;;3.53;;
32319;SDS011;19080;51.750;5.888;2023-02-03T01:07:59;12.90;;;3.28;;
32319;SDS011;19080;51.750;5.888;2023-02-03T01:10:26;14.07;;;3.00;;
32319;SDS011;19080;51.750;5.888;2023-02-03T01:12:54;16.88;;;3.25;;
32319;SDS011;19080;51.750;5.888;2023-02-03T01:15:20;18.20;;;3.45;;
32319;SDS011;19080;51.750;5.888;2023-02-03T01:17:47;13.95;;;3.33;;
32319;SDS011;19080;51.750;5.888;2023-02-03T01:20:13;13.98;;;3.28;;
32319;SDS011;19080;51.750;5.888;2023-02-03T01:22:42;16.85;;;2.92;;
32319;SDS011;19080;51.750;5.888;2023-02-03T01:25:09;10.45;;;3.10;;
32319;SDS011;19080;51.750;5.888;2023-02-03T01:27:36;12.27;;;3.05;;
32319;SDS011;19080;51.750;5.888;2023-02-03T01:30:03;12.10;;;3.03;;
32319;SDS011;19080;51.750;5.888;2023-02-03T01:32:30;16.00;;;3.20;;
32319;SDS011;19080;51.750;5.888;2023-02-03T01:34:56;12.07;;;2.78;;
32319;SDS011;19080;51.750;5.888;2023-02-03T01:37:23;15.32;;;3.25;;
32319;SDS011;19080;51.750;5.888;2023-02-03T01:39:49;15.55;;;3.08;;
32319;SDS011;19080;51.750;5.888;2023-02-03T01:42:16;12.40;;;2.85;;
32319;SDS011;19080;51.750;5.888;2023-02-03T01:44:44;13.98;;;2.97;;
32319;SDS011;19080;51.750;5.888;2023-02-03T01:49:51;10.38;;;2.22;;
32319;SDS011;19080;51.750;5.888;2023-02-03T01:52:25;11.23;;;2.55;;
32319;SDS011;19080;51.750;5.888;2023-02-03T01:54:53;10.13;;;2.88;;
32319;SDS011;19080;51.750;5.888;2023-02-03T01:57:26;8.70;;;2.65;;
32319;SDS011;19080;51.750;5.888;2023-02-03T01:59:59;11.93;;;2.72;;
32319;SDS011;19080;51.750;5.888;2023-02-03T02:02:38;10.00;;;2.45;;
32319;SDS011;19080;51.750;5.888;2023-02-03T02:07:40;10.80;;;2.55;;
32319;SDS011;19080;51.750;5.888;2023-02-03T02:10:08;14.02;;;2.40;;
32319;SDS011;19080;51.750;5.888;2023-02-03T02:12:36;9.90;;;2.38;;
32319;SDS011;19080;51.750;5.888;2023-02-03T02:15:03;13.57;;;2.58;;
32319;SDS011;19080;51.750;5.888;2023-02-03T02:18:33;9.82;;;2.00;;
32319;SDS011;19080;51.750;5.888;2023-02-03T02:20:55;11.65;;;2.55;;
32319;SDS011;19080;51.750;5.888;2023-02-03T02:26:52;8.27;;;2.60;;
32319;SDS011;19080;51.750;5.888;2023-02-03T02:37:49;8.85;;;1.77;;
32319;SDS011;19080;51.750;5.888;2023-02-03T02:40:31;14.50;;;3.00;;
32319;SDS011;19080;51.750;5.888;2023-02-03T02:43:24;8.82;;;1.90;;
32319;SDS011;19080;51.750;5.888;2023-02-03T02:45:59;8.18;;;2.08;;
32319;SDS011;19080;51.750;5.888;2023-02-03T02:48:37;9.88;;;2.40;;
32319;SDS011;19080;51.750;5.888;2023-02-03T02:51:10;7.63;;;1.95;;
32319;SDS011;19080;51.750;5.888;2023-02-03T02:53:41;7.45;;;2.05;;
32319;SDS011;19080;51.750;5.888;2023-02-03T02:56:12;10.80;;;2.22;;
32319;SDS011;19080;51.750;5.888;2023-02-03T02:58:42;11.13;;;2.10;;
32319;SDS011;19080;51.750;5.888;2023-02-03T03:01:12;8.40;;;2.20;;
32319;SDS011;19080;51.750;5.888;2023-02-03T03:03:40;7.65;;;1.98;;
32319;SDS011;19080;51.750;5.888;2023-02-03T03:06:14;6.68;;;2.00;;
32319;SDS011;19080;51.750;5.888;2023-02-03T03:08:49;12.80;;;1.88;;
32319;SDS011;19080;51.750;5.888;2023-02-03T03:11:20;9.30;;;2.00;;
32319;SDS011;19080;51.750;5.888;2023-02-03T03:13:52;6.00;;;2.17;;
32319;SDS011;19080;51.750;5.888;2023-02-03T03:16:26;11.07;;;2.10;;
32319;SDS011;19080;51.750;5.888;2023-02-03T03:18:59;9.48;;;2.08;;
32319;SDS011;19080;51.750;5.888;2023-02-03T03:21:31;12.18;;;2.05;;
32319;SDS011;19080;51.750;5.888;2023-02-03T03:24:04;9.52;;;1.90;;
32319;SDS011;19080;51.750;5.888;2023-02-03T03:26:46;8.77;;;1.95;;
32319;SDS011;19080;51.750;5.888;2023-02-03T03:29:23;8.77;;;2.25;;
32319;SDS011;19080;51.750;5.888;2023-02-03T03:31:56;9.85;;;1.83;;
32319;SDS011;19080;51.750;5.888;2023-02-03T03:34:23;9.60;;;2.03;;
32319;SDS011;19080;51.750;5.888;2023-02-03T03:36:53;8.75;;;2.65;;
32319;SDS011;19080;51.750;5.888;2023-02-03T03:42:20;9.38;;;1.90;;
32319;SDS011;19080;51.750;5.888;2023-02-03T03:45:00;5.90;;;1.80;;
32319;SDS011;19080;51.750;5.888;2023-02-03T03:50:25;7.45;;;2.08;;
32319;SDS011;19080;51.750;5.888;2023-02-03T03:52:55;7.60;;;2.35;;
32319;SDS011;19080;51.750;5.888;2023-02-03T03:55:26;8.80;;;1.90;;
32319;SDS011;19080;51.750;5.888;2023-02-03T03:58:01;6.00;;;2.10;;
32319;SDS011;19080;51.750;5.888;2023-02-03T04:00:32;7.35;;;1.77;;
32319;SDS011;19080;51.750;5.888;2023-02-03T04:03:14;13.20;;;2.25;;
32319;SDS011;19080;51.750;5.888;2023-02-03T04:05:44;5.88;;;1.75;;
32319;SDS011;19080;51.750;5.888;2023-02-03T04:08:11;5.63;;;1.92;;
32319;SDS011;19080;51.750;5.888;2023-02-03T04:10:39;7.05;;;1.55;;
32319;SDS011;19080;51.750;5.888;2023-02-03T04:13:08;10.18;;;1.98;;
32319;SDS011;19080;51.750;5.888;2023-02-03T04:15:36;8.45;;;1.88;;
32319;SDS011;19080;51.750;5.888;2023-02-03T04:18:03;9.07;;;1.90;;
32319;SDS011;19080;51.750;5.888;2023-02-03T04:20:30;7.00;;;1.70;;
32319;SDS011;19080;51.750;5.888;2023-02-03T04:22:57;6.88;;;1.55;;
32319;SDS011;19080;51.750;5.888;2023-02-03T04:25:25;5.68;;;1.60;;
32319;SDS011;19080;51.750;5.888;2023-02-03T04:27:52;8.57;;;1.98;;
32319;SDS011;19080;51.750;5.888;2023-02-03T04:30:18;9.15;;;1.67;;
32319;SDS011;19080;51.750;5.888;2023-02-03T04:32:45;4.75;;;1.48;;
32319;SDS011;19080;51.750;5.888;2023-02-03T04:35:12;7.28;;;2.00;;
32319;SDS011;19080;51.750;5.888;2023-02-03T04:37:39;9.35;;;1.52;;
32319;SDS011;19080;51.750;5.888;2023-02-03T04:40:06;9.18;;;2.75;;
32319;SDS011;19080;51.750;5.888;2023-02-03T04:42:35;10.00;;;2.60;;
32319;SDS011;19080;51.750;5.888;2023-02-03T04:45:03;7.30;;;1.58;;
32319;SDS011;19080;51.750;5.888;2023-02-03T04:47:31;7.00;;;1.77;;
32319;SDS011;19080;51.750;5.888;2023-02-03T04:49:58;6.38;;;2.13;;
32319;SDS011;19080;51.750;5.888;2023-02-03T04:52:25;6.40;;;1.65;;
32319;SDS011;19080;51.750;5.888;2023-02-03T04:54:52;4.40;;;1.40;;
32319;SDS011;19080;51.750;5.888;2023-02-03T04:57:19;9.20;;;1.83;;
32319;SDS011;19080;51.750;5.888;2023-02-03T04:59:45;8.68;;;1.40;;
32319;SDS011;19080;51.750;5.888;2023-02-03T05:02:12;6.80;;;1.38;;
32319;SDS011;19080;51.750;5.888;2023-02-03T05:04:38;5.47;;;1.42;;
32319;SDS011;19080;51.750;5.888;2023-02-03T05:07:05;10.88;;;1.35;;
32319;SDS011;19080;51.750;5.888;2023-02-03T05:09:31;8.57;;;1.83;;
32319;SDS011;19080;51.750;5.888;2023-02-03T05:11:58;6.40;;;1.33;;
32319;SDS011;19080;51.750;5.888;2023-02-03T05:14:24;4.50;;;1.38;;
32319;SDS011;19080;51.750;5.888;2023-02-03T05:16:51;6.25;;;2.13;;
32319;SDS011;19080;51.750;5.888;2023-02-03T05:19:18;10.23;;;2.42;;
32319;SDS011;19080;51.750;5.888;2023-02-03T05:21:44;6.53;;;1.48;;
32319;SDS011;19080;51.750;5.888;2023-02-03T05:24:11;6.90;;;1.88;;
32319;SDS011;19080;51.750;5.888;2023-02-03T05:26:38;7.30;;;1.50;;
32319;SDS011;19080;51.750;5.888;2023-02-03T05:29:04;6.32;;;1.67;;
32319;SDS011;19080;51.750;5.888;2023-02-03T05:31:31;7.05;;;1.88;;
32319;SDS011;19080;51.750;5.888;2023-02-03T05:33:58;7.38;;;1.70;;
32319;SDS011;19080;51.750;5.888;2023-02-03T05:36:25;6.95;;;1.77;;
32319;SDS011;19080;51.750;5.888;2023-02-03T05:38:52;6.50;;;1.90;;
32319;SDS011;19080;51.750;5.888;2023-02-03T05:41:18;6.75;;;2.20;;
32319;SDS011;19080;51.750;5.888;2023-02-03T05:44:03;9.23;;;1.55;;
32319;SDS011;19080;51.750;5.888;2023-02-03T05:46:30;9.05;;;1.70;;
32319;SDS011;19080;51.750;5.888;2023-02-03T05:48:57;5.32;;;1.48;;
32319;SDS011;19080;51.750;5.888;2023-02-03T05:51:23;9.32;;;1.80;;
32319;SDS011;19080;51.750;5.888;2023-02-03T05:53:50;8.50;;;1.88;;
32319;SDS011;19080;51.750;5.888;2023-02-03T05:56:18;5.75;;;1.45;;
32319;SDS011;19080;51.750;5.888;2023-02-03T05:58:44;7.25;;;1.60;;
32319;SDS011;19080;51.750;5.888;2023-02-03T06:01:11;5.15;;;1.40;;
32319;SDS011;19080;51.750;5.888;2023-02-03T06:03:38;8.63;;;2.33;;
32319;SDS011;19080;51.750;5.888;2023-02-03T06:06:04;12.48;;;2.00;;
32319;SDS011;19080;51.750;5.888;2023-02-03T06:08:31;9.68;;;2.13;;
32319;SDS011;19080;51.750;5.888;2023-02-03T06:10:58;7.22;;;1.48;;
32319;SDS011;19080;51.750;5.888;2023-02-03T06:13:26;8.25;;;1.85;;
32319;SDS011;19080;51.750;5.888;2023-02-03T06:15:53;8.48;;;1.98;;
32319;SDS011;19080;51.750;5.888;2023-02-03T06:18:20;11.82;;;2.05;;
32319;SDS011;19080;51.750;5.888;2023-02-03T06:20:46;9.30;;;1.70;;
32319;SDS011;19080;51.750;5.888;2023-02-03T06:23:13;6.10;;;1.40;;
32319;SDS011;19080;51.750;5.888;2023-02-03T06:25:42;8.82;;;1.70;;
32319;SDS011;19080;51.750;5.888;2023-02-03T06:28:09;9.73;;;2.67;;
32319;SDS011;19080;51.750;5.888;2023-02-03T06:30:35;5.93;;;1.75;;
32319;SDS011;19080;51.750;5.888;2023-02-03T06:33:02;8.25;;;1.90;;
32319;SDS011;19080;51.750;5.888;2023-02-03T06:35:29;8.63;;;2.03;;
32319;SDS011;19080;51.750;5.888;2023-02-03T06:37:55;5.80;;;1.52;;
32319;SDS011;19080;51.750;5.888;2023-02-03T06:40:22;10.55;;;2.15;;
32319;SDS011;19080;51.750;5.888;2023-02-03T06:42:49;8.02;;;1.92;;
32319;SDS011;19080;51.750;5.888;2023-02-03T06:45:16;9.40;;;1.83;;
32319;SDS011;19080;51.750;5.888;2023-02-03T06:47:43;6.93;;;1.80;;
32319;SDS011;19080;51.750;5.888;2023-02-03T06:50:12;9.15;;;2.85;;
32319;SDS011;19080;51.750;5.888;2023-02-03T06:52:41;9.73;;;1.95;;
32319;SDS011;19080;51.750;5.888;2023-02-03T06:55:07;8.82;;;2.53;;
32319;SDS011;19080;51.750;5.888;2023-02-03T06:57:34;6.97;;;1.58;;
32319;SDS011;19080;51.750;5.888;2023-02-03T07:00:01;10.35;;;2.33;;
32319;SDS011;19080;51.750;5.888;2023-02-03T07:02:28;9.63;;;2.00;;
32319;SDS011;19080;51.750;5.888;2023-02-03T07:04:55;9.00;;;2.08;;
32319;SDS011;19080;51.750;5.888;2023-02-03T07:07:21;10.70;;;2.03;;
32319;SDS011;19080;51.750;5.888;2023-02-03T07:09:48;11.93;;;2.53;;
32319;SDS011;19080;51.750;5.888;2023-02-03T07:12:14;11.75;;;2.10;;
32319;SDS011;19080;51.750;5.888;2023-02-03T07:14:41;8.18;;;1.83;;
32319;SDS011;19080;51.750;5.888;2023-02-03T07:17:08;7.45;;;2.42;;
32319;SDS011;19080;51.750;5.888;2023-02-03T07:19:34;9.32;;;2.63;;
32319;SDS011;19080;51.750;5.888;2023-02-03T07:22:01;9.00;;;1.90;;
32319;SDS011;19080;51.750;5.888;2023-02-03T07:24:27;7.03;;;2.22;;
32319;SDS011;19080;51.750;5.888;2023-02-03T07:26:54;10.82;;;2.20;;
32319;SDS011;19080;51.750;5.888;2023-02-03T07:29:20;8.77;;;2.40;;
32319;SDS011;19080;51.750;5.888;2023-02-03T07:31:47;8.70;;;2.25;;
32319;SDS011;19080;51.750;5.888;2023-02-03T07:34:15;8.35;;;2.22;;
32319;SDS011;19080;51.750;5.888;2023-02-03T07:36:41;10.15;;;2.90;;
32319;SDS011;19080;51.750;5.888;2023-02-03T07:39:08;10.23;;;2.35;;
32319;SDS011;19080;51.750;5.888;2023-02-03T07:41:35;7.05;;;2.15;;
32319;SDS011;19080;51.750;5.888;2023-02-03T07:44:01;11.00;;;2.97;;
32319;SDS011;19080;51.750;5.888;2023-02-03T07:46:28;12.35;;;2.70;;
32319;SDS011;19080;51.750;5.888;2023-02-03T07:48:55;7.18;;;2.97;;
32319;SDS011;19080;51.750;5.888;2023-02-03T07:51:21;17.60;;;3.58;;
32319;SDS011;19080;51.750;5.888;2023-02-03T07:53:48;9.30;;;2.95;;
32319;SDS011;19080;51.750;5.888;2023-02-03T07:56:15;9.38;;;2.70;;
32319;SDS011;19080;51.750;5.888;2023-02-03T07:58:41;12.48;;;3.13;;
32319;SDS011;19080;51.750;5.888;2023-02-03T08:01:09;14.40;;;3.13;;
32319;SDS011;19080;51.750;5.888;2023-02-03T08:03:37;10.02;;;3.10;;
32319;SDS011;19080;51.750;5.888;2023-02-03T08:06:04;12.80;;;2.58;;
32319;SDS011;19080;51.750;5.888;2023-02-03T08:08:31;12.93;;;2.25;;
32319;SDS011;19080;51.750;5.888;2023-02-03T08:10:58;8.77;;;2.78;;
32319;SDS011;19080;51.750;5.888;2023-02-03T08:13:24;12.65;;;3.25;;
32319;SDS011;19080;51.750;5.888;2023-02-03T08:15:51;12.43;;;2.92;;
32319;SDS011;19080;51.750;5.888;2023-02-03T08:18:18;10.15;;;2.90;;
32319;SDS011;19080;51.750;5.888;2023-02-03T08:20:45;9.27;;;2.58;;
32319;SDS011;19080;51.750;5.888;2023-02-03T08:23:13;17.10;;;3.17;;
32319;SDS011;19080;51.750;5.888;2023-02-03T08:25:40;11.95;;;3.55;;
32319;SDS011;19080;51.750;5.888;2023-02-03T08:28:06;12.43;;;3.60;;
32319;SDS011;19080;51.750;5.888;2023-02-03T08:30:33;15.80;;;3.67;;
32319;SDS011;19080;51.750;5.888;2023-02-03T08:33:00;12.73;;;3.20;;
32319;SDS011;19080;51.750;5.888;2023-02-03T08:35:26;10.75;;;3.17;;
32319;SDS011;19080;51.750;5.888;2023-02-03T08:37:53;16.13;;;3.35;;
32319;SDS011;19080;51.750;5.888;2023-02-03T08:40:20;13.18;;;3.42;;
32319;SDS011;19080;51.750;5.888;2023-02-03T08:42:47;15.90;;;3.15;;
32319;SDS011;19080;51.750;5.888;2023-02-03T08:45:14;8.52;;;2.85;;
32319;SDS011;19080;51.750;5.888;2023-02-03T08:47:40;10.88;;;2.85;;
32319;SDS011;19080;51.750;5.888;2023-02-03T08:50:07;12.88;;;3.05;;
32319;SDS011;19080;51.750;5.888;2023-02-03T08:52:34;12.98;;;3.10;;
32319;SDS011;19080;51.750;5.888;2023-02-03T08:55:01;12.48;;;3.45;;
32319;SDS011;19080;51.750;5.888;2023-02-03T08:57:30;14.05;;;2.70;;
32319;SDS011;19080;51.750;5.888;2023-02-03T08:59:58;15.63;;;3.42;;
32319;SDS011;19080;51.750;5.888;2023-02-03T09:02:25;15.65;;;3.63;;
32319;SDS011;19080;51.750;5.888;2023-02-03T09:04:51;16.05;;;3.22;;
32319;SDS011;19080;51.750;5.888;2023-02-03T09:07:18;14.43;;;3.45;;
32319;SDS011;19080;51.750;5.888;2023-02-03T09:09:45;11.65;;;3.08;;
32319;SDS011;19080;51.750;5.888;2023-02-03T09:12:12;13.52;;;2.90;;
32319;SDS011;19080;51.750;5.888;2023-02-03T09:14:38;13.23;;;3.05;;
32319;SDS011;19080;51.750;5.888;2023-02-03T09:17:05;14.25;;;3.10;;
32319;SDS011;19080;51.750;5.888;2023-02-03T09:19:33;11.40;;;3.15;;
32319;SDS011;19080;51.750;5.888;2023-02-03T09:22:02;13.57;;;3.55;;
32319;SDS011;19080;51.750;5.888;2023-02-03T09:24:29;11.52;;;3.03;;
32319;SDS011;19080;51.750;5.888;2023-02-03T09:26:55;9.52;;;2.60;;
32319;SDS011;19080;51.750;5.888;2023-02-03T09:29:22;16.33;;;3.22;;
32319;SDS011;19080;51.750;5.888;2023-02-03T09:31:49;12.70;;;3.30;;
32319;SDS011;19080;51.750;5.888;2023-02-03T09:34:19;19.00;;;3.65;;
32319;SDS011;19080;51.750;5.888;2023-02-03T09:36:46;9.25;;;2.95;;
32319;SDS011;19080;51.750;5.888;2023-02-03T09:39:13;11.68;;;3.03;;
32319;SDS011;19080;51.750;5.888;2023-02-03T09:41:48;12.25;;;3.13;;
32319;SDS011;19080;51.750;5.888;2023-02-03T09:47:15;14.27;;;2.60;;
32319;SDS011;19080;51.750;5.888;2023-02-03T09:49:57;17.02;;;2.78;;
32319;SDS011;19080;51.750;5.888;2023-02-03T09:52:39;14.65;;;2.55;;
32319;SDS011;19080;51.750;5.888;2023-02-03T09:55:15;11.32;;;2.83;;
32319;SDS011;19080;51.750;5.888;2023-02-03T09:58:02;9.70;;;2.50;;
32319;SDS011;19080;51.750;5.888;2023-02-03T10:00:47;17.67;;;2.75;;
32319;SDS011;19080;51.750;5.888;2023-02-03T10:03:35;13.93;;;2.33;;
32319;SDS011;19080;51.750;5.888;2023-02-03T10:06:19;10.20;;;2.70;;
32319;SDS011;19080;51.750;5.888;2023-02-03T10:11:44;11.13;;;2.85;;
32319;SDS011;19080;51.750;5.888;2023-02-03T10:20:10;13.70;;;3.20;;
32319;SDS011;19080;51.750;5.888;2023-02-03T10:22:44;12.38;;;2.65;;
32319;SDS011;19080;51.750;5.888;2023-02-03T10:27:45;13.07;;;2.53;;
32319;SDS011;19080;51.750;5.888;2023-02-03T10:30:25;11.40;;;2.97;;
32319;SDS011;19080;51.750;5.888;2023-02-03T10:33:10;11.18;;;2.97;;
32319;SDS011;19080;51.750;5.888;2023-02-03T10:35:52;13.32;;;3.13;;
32319;SDS011;19080;51.750;5.888;2023-02-03T10:38:32;9.35;;;2.58;;
32319;SDS011;19080;51.750;5.888;2023-02-03T10:41:01;14.25;;;3.03;;
32319;SDS011;19080;51.750;5.888;2023-02-03T10:43:29;14.13;;;3.40;;
32319;SDS011;19080;51.750;5.888;2023-02-03T10:46:19;15.38;;;3.38;;
32319;SDS011;19080;51.750;5.888;2023-02-03T10:48:52;7.90;;;2.63;;
32319;SDS011;19080;51.750;5.888;2023-02-03T10:51:21;14.77;;;3.00;;
32319;SDS011;19080;51.750;5.888;2023-02-03T10:53:57;15.18;;;2.92;;
32319;SDS011;19080;51.750;5.888;2023-02-03T10:56:34;13.18;;;3.10;;
32319;SDS011;19080;51.750;5.888;2023-02-03T10:59:03;9.63;;;2.75;;
32319;SDS011;19080;51.750;5.888;2023-02-03T11:01:41;12.65;;;3.67;;
32319;SDS011;19080;51.750;5.888;2023-02-03T11:04:24;9.80;;;2.72;;
32319;SDS011;19080;51.750;5.888;2023-02-03T11:06:57;12.75;;;3.10;;
32319;SDS011;19080;51.750;5.888;2023-02-03T11:12:04;9.65;;;3.13;;
32319;SDS011;19080;51.750;5.888;2023-02-03T11:14:36;17.23;;;3.80;;
32319;SDS011;19080;51.750;5.888;2023-02-03T11:17:23;10.07;;;3.20;;
32319;SDS011;19080;51.750;5.888;2023-02-03T11:22:27;14.65;;;3.28;;
32319;SDS011;19080;51.750;5.888;2023-02-03T11:24:57;11.18;;;2.70;;
32319;SDS011;19080;51.750;5.888;2023-02-03T11:27:27;10.88;;;3.10;;
32319;SDS011;19080;51.750;5.888;2023-02-03T11:30:09;15.88;;;3.95;;
32319;SDS011;19080;51.750;5.888;2023-02-03T11:32:42;9.30;;;2.40;;
32319;SDS011;19080;51.750;5.888;2023-02-03T11:37:45;18.63;;;3.10;;
32319;SDS011;19080;51.750;5.888;2023-02-03T11:42:41;15.45;;;3.60;;
32319;SDS011;19080;51.750;5.888;2023-02-03T11:47:43;13.85;;;2.85;;
32319;SDS011;19080;51.750;5.888;2023-02-03T11:58:45;13.10;;;3.70;;
32319;SDS011;19080;51.750;5.888;2023-02-03T12:07:05;15.07;;;4.32;;
32319;SDS011;19080;51.750;5.888;2023-02-03T12:18:30;9.85;;;3.25;;
32319;SDS011;19080;51.750;5.888;2023-02-03T12:21:09;9.00;;;2.95;;
32319;SDS011;19080;51.750;5.888;2023-02-03T12:31:44;8.10;;;2.33;;
32319;SDS011;19080;51.750;5.888;2023-02-03T12:37:25;7.75;;;2.00;;
32319;SDS011;19080;51.750;5.888;2023-02-03T12:40:05;7.55;;;2.30;;
32319;SDS011;19080;51.750;5.888;2023-02-03T12:42:43;4.68;;;2.40;;
32319;SDS011;19080;51.750;5.888;2023-02-03T12:45:20;8.40;;;2.28;;
32319;SDS011;19080;51.750;5.888;2023-02-03T12:48:05;6.00;;;2.10;;
32319;SDS011;19080;51.750;5.888;2023-02-03T12:50:38;6.55;;;2.63;;
32319;SDS011;19080;51.750;5.888;2023-02-03T12:56:03;11.60;;;2.67;;
32319;SDS011;19080;51.750;5.888;2023-02-03T12:58:36;6.45;;;2.80;;
32319;SDS011;19080;51.750;5.888;2023-02-03T13:01:10;5.57;;;2.80;;
32319;SDS011;19080;51.750;5.888;2023-02-03T13:03:50;9.85;;;2.72;;
32319;SDS011;19080;51.750;5.888;2023-02-03T13:06:29;9.88;;;2.72;;
32319;SDS011;19080;51.750;5.888;2023-02-03T13:09:27;8.02;;;2.58;;
32319;SDS011;19080;51.750;5.888;2023-02-03T13:12:23;8.05;;;2.15;;
32319;SDS011;19080;51.750;5.888;2023-02-03T13:17:57;12.40;;;2.83;;
32319;SDS011;19080;51.750;5.888;2023-02-03T13:20:31;6.13;;;2.35;;
32319;SDS011;19080;51.750;5.888;2023-02-03T13:23:05;10.82;;;2.65;;
32319;SDS011;19080;51.750;5.888;2023-02-03T13:28:08;6.97;;;2.75;;
32319;SDS011;19080;51.750;5.888;2023-02-03T13:39:14;5.57;;;2.70;;
32319;SDS011;19080;51.750;5.888;2023-02-03T13:41:48;10.65;;;2.90;;
32319;SDS011;19080;51.750;5.888;2023-02-03T13:44:26;10.63;;;3.22;;
32319;SDS011;19080;51.750;5.888;2023-02-03T13:46:57;7.85;;;3.13;;
32319;SDS011;19080;51.750;5.888;2023-02-03T13:49:29;14.02;;;2.65;;
32319;SDS011;19080;51.750;5.888;2023-02-03T13:54:32;11.48;;;2.85;;
32319;SDS011;19080;51.750;5.888;2023-02-03T13:57:02;12.00;;;3.78;;
32319;SDS011;19080;51.750;5.888;2023-02-03T13:59:44;12.65;;;3.28;;
32319;SDS011;19080;51.750;5.888;2023-02-03T14:22:57;13.75;;;3.25;;
32319;SDS011;19080;51.750;5.888;2023-02-03T14:25:41;17.48;;;2.90;;
32319;SDS011;19080;51.750;5.888;2023-02-03T14:28:13;13.13;;;3.17;;
32319;SDS011;19080;51.750;5.888;2023-02-03T14:33:49;10.48;;;2.88;;
32319;SDS011;19080;51.750;5.888;2023-02-03T14:42:08;15.73;;;3.67;;
32319;SDS011;19080;51.750;5.888;2023-02-03T14:50:12;17.98;;;3.22;;
32319;SDS011;19080;51.750;5.888;2023-02-03T14:55:51;18.58;;;3.63;;
32319;SDS011;19080;51.750;5.888;2023-02-03T14:58:31;13.40;;;3.40;;
32319;SDS011;19080;51.750;5.888;2023-02-03T15:03:29;18.20;;;4.13;;
32319;SDS011;19080;51.750;5.888;2023-02-03T15:05:57;17.63;;;5.13;;
32319;SDS011;19080;51.750;5.888;2023-02-03T15:14:12;13.43;;;2.78;;
32319;SDS011;19080;51.750;5.888;2023-02-03T15:16:48;18.55;;;3.83;;
32319;SDS011;19080;51.750;5.888;2023-02-03T15:21:48;17.15;;;3.45;;
32319;SDS011;19080;51.750;5.888;2023-02-03T15:24:15;21.33;;;4.00;;
32319;SDS011;19080;51.750;5.888;2023-02-03T15:26:47;20.60;;;3.90;;
32319;SDS011;19080;51.750;5.888;2023-02-03T15:29:20;22.73;;;4.18;;
32319;SDS011;19080;51.750;5.888;2023-02-03T15:31:48;16.80;;;3.10;;
32319;SDS011;19080;51.750;5.888;2023-02-03T15:34:26;21.55;;;4.00;;
32319;SDS011;19080;51.750;5.888;2023-02-03T15:36:59;18.52;;;3.85;;
32319;SDS011;19080;51.750;5.888;2023-02-03T15:42:21;13.88;;;3.20;;
32319;SDS011;19080;51.750;5.888;2023-02-03T15:44:56;16.33;;;3.53;;
32319;SDS011;19080;51.750;5.888;2023-02-03T15:47:40;19.90;;;3.58;;
32319;SDS011;19080;51.750;5.888;2023-02-03T15:53:15;15.25;;;3.97;;
32319;SDS011;19080;51.750;5.888;2023-02-03T15:55:52;20.83;;;5.05;;
32319;SDS011;19080;51.750;5.888;2023-02-03T15:58:28;22.25;;;4.07;;
32319;SDS011;19080;51.750;5.888;2023-02-03T16:00:58;18.25;;;3.97;;
32319;SDS011;19080;51.750;5.888;2023-02-03T16:06:08;20.73;;;4.57;;
32319;SDS011;19080;51.750;5.888;2023-02-03T16:08:44;14.98;;;3.95;;
32319;SDS011;19080;51.750;5.888;2023-02-03T16:14:03;19.20;;;4.60;;
32319;SDS011;19080;51.750;5.888;2023-02-03T16:16:44;18.25;;;3.70;;
32319;SDS011;19080;51.750;5.888;2023-02-03T16:19:30;15.48;;;3.97;;
32319;SDS011;19080;51.750;5.888;2023-02-03T16:22:03;20.50;;;3.83;;
32319;SDS011;19080;51.750;5.888;2023-02-03T16:24:37;36.55;;;12.75;;
32319;SDS011;19080;51.750;5.888;2023-02-03T16:27:54;23.63;;;4.75;;
32319;SDS011;19080;51.750;5.888;2023-02-03T16:29:53;26.48;;;4.97;;
32319;SDS011;19080;51.750;5.888;2023-02-03T16:33:04;20.73;;;5.88;;
32319;SDS011;19080;51.750;5.888;2023-02-03T16:35:57;16.67;;;4.10;;
32319;SDS011;19080;51.750;5.888;2023-02-03T16:38:48;19.02;;;4.20;;
32319;SDS011;19080;51.750;5.888;2023-02-03T16:41:34;49.92;;;18.00;;
32319;SDS011;19080;51.750;5.888;2023-02-03T16:44:21;21.75;;;5.05;;
32319;SDS011;19080;51.750;5.888;2023-02-03T16:47:28;21.00;;;4.70;;
32319;SDS011;19080;51.750;5.888;2023-02-03T16:50:14;18.88;;;4.20;;
32319;SDS011;19080;51.750;5.888;2023-02-03T16:53:06;13.95;;;3.45;;
32319;SDS011;19080;51.750;5.888;2023-02-03T16:55:38;20.33;;;5.00;;
32319;SDS011;19080;51.750;5.888;2023-02-03T16:58:06;19.27;;;4.43;;
32319;SDS011;19080;51.750;5.888;2023-02-03T17:00:33;16.00;;;3.47;;
32319;SDS011;19080;51.750;5.888;2023-02-03T17:03:03;23.48;;;5.53;;
32319;SDS011;19080;51.750;5.888;2023-02-03T17:05:30;18.92;;;3.90;;
32319;SDS011;19080;51.750;5.888;2023-02-03T17:07:57;27.52;;;4.53;;
32319;SDS011;19080;51.750;5.888;2023-02-03T17:10:24;23.08;;;5.15;;
32319;SDS011;19080;51.750;5.888;2023-02-03T17:12:51;22.58;;;6.57;;
32319;SDS011;19080;51.750;5.888;2023-02-03T17:15:18;30.10;;;5.38;;
32319;SDS011;19080;51.750;5.888;2023-02-03T17:17:44;19.02;;;4.70;;
32319;SDS011;19080;51.750;5.888;2023-02-03T17:20:11;28.15;;;4.97;;
32319;SDS011;19080;51.750;5.888;2023-02-03T17:22:38;21.63;;;4.85;;
32319;SDS011;19080;51.750;5.888;2023-02-03T17:25:04;19.75;;;4.75;;
32319;SDS011;19080;51.750;5.888;2023-02-03T17:27:31;21.65;;;4.55;;
32319;SDS011;19080;51.750;5.888;2023-02-03T17:29:58;27.45;;;5.10;;
32319;SDS011;19080;51.750;5.888;2023-02-03T17:32:25;22.75;;;4.70;;
32319;SDS011;19080;51.750;5.888;2023-02-03T17:34:51;20.60;;;3.95;;
32319;SDS011;19080;51.750;5.888;2023-02-03T17:37:18;25.20;;;4.78;;
32319;SDS011;19080;51.750;5.888;2023-02-03T17:39:44;22.27;;;4.68;;
32319;SDS011;19080;51.750;5.888;2023-02-03T17:42:28;19.17;;;3.78;;
32319;SDS011;19080;51.750;5.888;2023-02-03T17:45:12;18.92;;;4.75;;
32319;SDS011;19080;51.750;5.888;2023-02-03T17:47:57;26.10;;;4.82;;